sensor_id;sensor_type;location;lat;lon;timestamp;P1;durP1;ratioP1;P2;durP2;ratioP2
43124;SDS011;49182;50.788;7.318;2023-07-22T00:00:07;6.78;;;4.32;;
43124;SDS011;49182;50.788;7.318;2023-07-22T00:05:11;5.78;;;3.15;;
43124;SDS011;49182;50.788;7.318;2023-07-22T00:10:12;5.63;;;3.88;;
43124;SDS011;49182;50.788;7.318;2023-07-22T00:15:14;5.43;;;2.83;;
43124;SDS011;49182;50.788;7.318;2023-07-22T00:20:18;6.10;;;3.78;;
43124;SDS011;49182;50.788;7.318;2023-07-22T00:25:20;6.82;;;3.95;;
43124;SDS011;49182;50.788;7.318;2023-07-22T00:30:21;6.20;;;3.92;;
43124;SDS011;49182;50.788;7.318;2023-07-22T00:35:26;5.78;;;3.85;;
43124;SDS011;49182;50.788;7.318;2023-07-22T00:40:28;6.55;;;3.10;;
43124;SDS011;49182;50.788;7.318;2023-07-22T00:45:30;8.02;;;3.83;;
43124;SDS011;49182;50.788;7.318;2023-07-22T00:50:33;5.13;;;3.70;;
43124;SDS011;49182;50.788;7.318;2023-07-22T00:55:36;6.55;;;3.95;;
43124;SDS011;49182;50.788;7.318;2023-07-22T01:00:40;6.95;;;5.40;;
43124;SDS011;49182;50.788;7.318;2023-07-22T01:05:44;6.57;;;3.70;;
43124;SDS011;49182;50.788;7.318;2023-07-22T01:10:47;10.32;;;5.05;;
43124;SDS011;49182;50.788;7.318;2023-07-22T01:15:49;5.95;;;3.70;;
43124;SDS011;49182;50.788;7.318;2023-07-22T01:20:52;5.93;;;4.25;;
43124;SDS011;49182;50.788;7.318;2023-07-22T01:30:57;5.78;;;3.25;;
43124;SDS011;49182;50.788;7.318;2023-07-22T01:35:59;6.28;;;3.47;;
43124;SDS011;49182;50.788;7.318;2023-07-22T01:41:03;6.55;;;3.97;;
43124;SDS011;49182;50.788;7.318;2023-07-22T01:51:06;5.55;;;3.65;;
43124;SDS011;49182;50.788;7.318;2023-07-22T01:56:09;6.70;;;3.50;;
43124;SDS011;49182;50.788;7.318;2023-07-22T02:06:13;9.55;;;4.07;;
43124;SDS011;49182;50.788;7.318;2023-07-22T02:11:16;5.35;;;3.25;;
43124;SDS011;49182;50.788;7.318;2023-07-22T02:16:18;7.22;;;4.50;;
43124;SDS011;49182;50.788;7.318;2023-07-22T02:21:20;6.93;;;4.03;;
43124;SDS011;49182;50.788;7.318;2023-07-22T02:26:23;10.73;;;3.75;;
43124;SDS011;49182;50.788;7.318;2023-07-22T02:31:26;5.63;;;4.03;;
43124;SDS011;49182;50.788;7.318;2023-07-22T02:36:28;8.07;;;4.45;;
43124;SDS011;49182;50.788;7.318;2023-07-22T02:41:31;6.55;;;5.03;;
43124;SDS011;49182;50.788;7.318;2023-07-22T02:46:33;7.90;;;4.40;;
43124;SDS011;49182;50.788;7.318;2023-07-22T02:51:35;6.35;;;4.72;;
43124;SDS011;49182;50.788;7.318;2023-07-22T02:56:38;7.07;;;4.55;;
43124;SDS011;49182;50.788;7.318;2023-07-22T03:01:40;7.28;;;3.60;;
43124;SDS011;49182;50.788;7.318;2023-07-22T03:06:42;6.72;;;4.75;;
43124;SDS011;49182;50.788;7.318;2023-07-22T03:11:46;5.78;;;4.50;;
43124;SDS011;49182;50.788;7.318;2023-07-22T03:16:48;6.20;;;3.80;;
43124;SDS011;49182;50.788;7.318;2023-07-22T03:21:50;6.07;;;3.35;;
43124;SDS011;49182;50.788;7.318;2023-07-22T03:26:53;7.15;;;3.63;;
43124;SDS011;49182;50.788;7.318;2023-07-22T03:36:57;7.70;;;4.43;;
43124;SDS011;49182;50.788;7.318;2023-07-22T03:42:00;7.78;;;4.78;;
43124;SDS011;49182;50.788;7.318;2023-07-22T03:52:04;6.47;;;3.22;;
43124;SDS011;49182;50.788;7.318;2023-07-22T03:57:07;7.72;;;3.85;;
43124;SDS011;49182;50.788;7.318;2023-07-22T04:02:09;8.65;;;3.85;;
43124;SDS011;49182;50.788;7.318;2023-07-22T04:07:11;5.03;;;3.35;;
43124;SDS011;49182;50.788;7.318;2023-07-22T04:12:15;8.27;;;4.47;;
43124;SDS011;49182;50.788;7.318;2023-07-22T04:17:16;7.80;;;4.45;;
43124;SDS011;49182;50.788;7.318;2023-07-22T04:22:18;5.78;;;3.67;;
43124;SDS011;49182;50.788;7.318;2023-07-22T04:27:22;5.95;;;3.33;;
43124;SDS011;49182;50.788;7.318;2023-07-22T04:37:26;5.40;;;4.20;;
43124;SDS011;49182;50.788;7.318;2023-07-22T04:42:29;6.40;;;4.00;;
43124;SDS011;49182;50.788;7.318;2023-07-22T04:52:32;4.43;;;3.15;;
43124;SDS011;49182;50.788;7.318;2023-07-22T04:57:35;6.30;;;4.43;;
43124;SDS011;49182;50.788;7.318;2023-07-22T05:02:37;7.43;;;3.80;;
43124;SDS011;49182;50.788;7.318;2023-07-22T05:07:39;6.53;;;4.07;;
43124;SDS011;49182;50.788;7.318;2023-07-22T05:12:42;6.72;;;5.18;;
43124;SDS011;49182;50.788;7.318;2023-07-22T05:17:43;7.35;;;4.25;;
43124;SDS011;49182;50.788;7.318;2023-07-22T05:22:45;7.93;;;5.15;;
43124;SDS011;49182;50.788;7.318;2023-07-22T05:27:49;7.85;;;4.25;;
43124;SDS011;49182;50.788;7.318;2023-07-22T05:32:51;7.05;;;4.95;;
43124;SDS011;49182;50.788;7.318;2023-07-22T05:37:53;5.70;;;4.10;;
43124;SDS011;49182;50.788;7.318;2023-07-22T05:42:56;7.75;;;4.72;;
43124;SDS011;49182;50.788;7.318;2023-07-22T05:47:58;7.05;;;4.28;;
43124;SDS011;49182;50.788;7.318;2023-07-22T05:53:00;7.72;;;5.13;;
43124;SDS011;49182;50.788;7.318;2023-07-22T05:58:03;7.15;;;4.63;;
43124;SDS011;49182;50.788;7.318;2023-07-22T06:03:05;7.53;;;4.53;;
43124;SDS011;49182;50.788;7.318;2023-07-22T06:08:07;6.30;;;4.57;;
43124;SDS011;49182;50.788;7.318;2023-07-22T06:13:10;7.60;;;4.25;;
43124;SDS011;49182;50.788;7.318;2023-07-22T06:18:12;6.70;;;4.95;;
43124;SDS011;49182;50.788;7.318;2023-07-22T06:23:13;7.63;;;4.28;;
43124;SDS011;49182;50.788;7.318;2023-07-22T06:28:16;7.40;;;5.38;;
43124;SDS011;49182;50.788;7.318;2023-07-22T06:33:18;6.72;;;4.53;;
43124;SDS011;49182;50.788;7.318;2023-07-22T06:38:20;5.68;;;4.03;;
43124;SDS011;49182;50.788;7.318;2023-07-22T06:43:23;6.15;;;4.72;;
43124;SDS011;49182;50.788;7.318;2023-07-22T06:48:24;7.93;;;4.25;;
43124;SDS011;49182;50.788;7.318;2023-07-22T06:53:26;5.57;;;3.92;;
43124;SDS011;49182;50.788;7.318;2023-07-22T06:58:29;6.20;;;4.70;;
43124;SDS011;49182;50.788;7.318;2023-07-22T07:03:31;8.48;;;4.10;;
43124;SDS011;49182;50.788;7.318;2023-07-22T07:08:33;11.15;;;4.38;;
43124;SDS011;49182;50.788;7.318;2023-07-22T07:13:36;8.65;;;5.55;;
43124;SDS011;49182;50.788;7.318;2023-07-22T07:18:38;6.20;;;4.03;;
43124;SDS011;49182;50.788;7.318;2023-07-22T07:23:39;7.43;;;3.53;;
43124;SDS011;49182;50.788;7.318;2023-07-22T07:28:42;5.40;;;3.15;;
43124;SDS011;49182;50.788;7.318;2023-07-22T07:33:45;5.88;;;3.55;;
43124;SDS011;49182;50.788;7.318;2023-07-22T07:38:46;7.38;;;4.03;;
43124;SDS011;49182;50.788;7.318;2023-07-22T07:43:50;5.57;;;2.95;;
43124;SDS011;49182;50.788;7.318;2023-07-22T07:48:52;5.15;;;3.70;;
43124;SDS011;49182;50.788;7.318;2023-07-22T07:53:54;4.82;;;2.92;;
43124;SDS011;49182;50.788;7.318;2023-07-22T07:58:58;5.40;;;3.30;;
43124;SDS011;49182;50.788;7.318;2023-07-22T08:04:00;8.55;;;3.03;;
43124;SDS011;49182;50.788;7.318;2023-07-22T08:09:01;4.35;;;2.75;;
43124;SDS011;49182;50.788;7.318;2023-07-22T08:14:04;6.07;;;3.97;;
43124;SDS011;49182;50.788;7.318;2023-07-22T08:19:06;5.03;;;3.08;;
43124;SDS011;49182;50.788;7.318;2023-07-22T08:24:08;6.10;;;4.03;;
43124;SDS011;49182;50.788;7.318;2023-07-22T08:29:11;4.82;;;3.15;;
43124;SDS011;49182;50.788;7.318;2023-07-22T08:34:12;7.78;;;4.40;;
43124;SDS011;49182;50.788;7.318;2023-07-22T08:39:14;7.13;;;3.72;;
43124;SDS011;49182;50.788;7.318;2023-07-22T08:49:23;5.40;;;3.63;;
43124;SDS011;49182;50.788;7.318;2023-07-22T08:54:26;7.03;;;3.42;;
43124;SDS011;49182;50.788;7.318;2023-07-22T08:59:30;5.70;;;3.13;;
43124;SDS011;49182;50.788;7.318;2023-07-22T09:04:33;7.38;;;4.22;;
43124;SDS011;49182;50.788;7.318;2023-07-22T09:14:38;4.65;;;3.25;;
43124;SDS011;49182;50.788;7.318;2023-07-22T09:19:41;5.47;;;3.33;;
43124;SDS011;49182;50.788;7.318;2023-07-22T09:24:43;6.15;;;3.58;;
43124;SDS011;49182;50.788;7.318;2023-07-22T09:29:46;6.05;;;3.67;;
43124;SDS011;49182;50.788;7.318;2023-07-22T09:34:53;5.13;;;3.47;;
43124;SDS011;49182;50.788;7.318;2023-07-22T09:39:55;6.20;;;3.13;;
43124;SDS011;49182;50.788;7.318;2023-07-22T09:50:00;5.55;;;3.22;;
43124;SDS011;49182;50.788;7.318;2023-07-22T09:55:02;4.40;;;3.15;;
43124;SDS011;49182;50.788;7.318;2023-07-22T10:00:05;5.35;;;2.72;;
43124;SDS011;49182;50.788;7.318;2023-07-22T10:05:12;5.72;;;3.08;;
43124;SDS011;49182;50.788;7.318;2023-07-22T10:10:16;4.38;;;2.60;;
43124;SDS011;49182;50.788;7.318;2023-07-22T10:15:21;4.45;;;2.30;;
43124;SDS011;49182;50.788;7.318;2023-07-22T10:20:24;5.03;;;2.97;;
43124;SDS011;49182;50.788;7.318;2023-07-22T10:25:26;6.53;;;3.33;;
43124;SDS011;49182;50.788;7.318;2023-07-22T10:30:29;10.27;;;3.75;;
43124;SDS011;49182;50.788;7.318;2023-07-22T10:35:40;4.45;;;2.58;;
43124;SDS011;49182;50.788;7.318;2023-07-22T10:40:46;5.13;;;2.80;;
43124;SDS011;49182;50.788;7.318;2023-07-22T10:45:52;4.32;;;2.17;;
43124;SDS011;49182;50.788;7.318;2023-07-22T10:50:58;5.25;;;2.58;;
43124;SDS011;49182;50.788;7.318;2023-07-22T10:56:06;9.25;;;2.40;;
43124;SDS011;49182;50.788;7.318;2023-07-22T11:01:22;3.78;;;2.28;;
43124;SDS011;49182;50.788;7.318;2023-07-22T11:06:25;4.00;;;2.40;;
43124;SDS011;49182;50.788;7.318;2023-07-22T11:11:34;3.63;;;2.20;;
43124;SDS011;49182;50.788;7.318;2023-07-22T11:16:38;3.40;;;2.00;;
43124;SDS011;49182;50.788;7.318;2023-07-22T11:21:40;3.70;;;2.15;;
43124;SDS011;49182;50.788;7.318;2023-07-22T11:26:42;6.20;;;2.90;;
43124;SDS011;49182;50.788;7.318;2023-07-22T11:31:48;4.05;;;2.28;;
43124;SDS011;49182;50.788;7.318;2023-07-22T11:36:52;3.63;;;1.88;;
43124;SDS011;49182;50.788;7.318;2023-07-22T11:41:54;2.75;;;1.48;;
43124;SDS011;49182;50.788;7.318;2023-07-22T11:46:58;3.28;;;1.58;;
43124;SDS011;49182;50.788;7.318;2023-07-22T11:52:01;2.63;;;1.42;;
43124;SDS011;49182;50.788;7.318;2023-07-22T11:57:11;2.47;;;1.00;;
43124;SDS011;49182;50.788;7.318;2023-07-22T12:02:16;2.42;;;1.52;;
43124;SDS011;49182;50.788;7.318;2023-07-22T12:07:23;3.15;;;1.90;;
43124;SDS011;49182;50.788;7.318;2023-07-22T12:12:32;2.20;;;1.17;;
43124;SDS011;49182;50.788;7.318;2023-07-22T12:17:48;3.95;;;1.20;;
43124;SDS011;49182;50.788;7.318;2023-07-22T12:22:53;2.80;;;1.42;;
43124;SDS011;49182;50.788;7.318;2023-07-22T12:27:55;2.28;;;1.17;;
43124;SDS011;49182;50.788;7.318;2023-07-22T12:32:58;2.67;;;1.60;;
43124;SDS011;49182;50.788;7.318;2023-07-22T12:38:00;3.00;;;1.42;;
43124;SDS011;49182;50.788;7.318;2023-07-22T12:43:02;3.10;;;1.58;;
43124;SDS011;49182;50.788;7.318;2023-07-22T12:48:05;3.20;;;1.10;;
43124;SDS011;49182;50.788;7.318;2023-07-22T12:53:07;3.83;;;2.25;;
43124;SDS011;49182;50.788;7.318;2023-07-22T12:58:09;2.70;;;1.13;;
43124;SDS011;49182;50.788;7.318;2023-07-22T13:03:13;3.83;;;1.45;;
43124;SDS011;49182;50.788;7.318;2023-07-22T13:08:15;3.10;;;1.42;;
43124;SDS011;49182;50.788;7.318;2023-07-22T13:13:17;3.08;;;1.23;;
43124;SDS011;49182;50.788;7.318;2023-07-22T13:18:20;3.13;;;1.67;;
43124;SDS011;49182;50.788;7.318;2023-07-22T13:23:22;3.13;;;1.90;;
43124;SDS011;49182;50.788;7.318;2023-07-22T13:28:24;3.58;;;1.80;;
43124;SDS011;49182;50.788;7.318;2023-07-22T13:33:27;3.25;;;1.77;;
43124;SDS011;49182;50.788;7.318;2023-07-22T13:38:28;3.90;;;2.03;;
43124;SDS011;49182;50.788;7.318;2023-07-22T13:43:30;3.08;;;1.58;;
43124;SDS011;49182;50.788;7.318;2023-07-22T13:48:34;3.65;;;1.55;;
43124;SDS011;49182;50.788;7.318;2023-07-22T13:53:35;3.95;;;1.52;;
43124;SDS011;49182;50.788;7.318;2023-07-22T13:58:37;2.97;;;1.33;;
43124;SDS011;49182;50.788;7.318;2023-07-22T14:03:40;4.72;;;2.25;;
43124;SDS011;49182;50.788;7.318;2023-07-22T14:08:42;3.05;;;1.63;;
43124;SDS011;49182;50.788;7.318;2023-07-22T14:13:43;4.30;;;1.85;;
43124;SDS011;49182;50.788;7.318;2023-07-22T14:18:46;4.40;;;2.25;;
43124;SDS011;49182;50.788;7.318;2023-07-22T14:23:48;3.20;;;1.70;;
43124;SDS011;49182;50.788;7.318;2023-07-22T14:28:50;3.83;;;2.03;;
43124;SDS011;49182;50.788;7.318;2023-07-22T14:33:53;4.20;;;1.65;;
43124;SDS011;49182;50.788;7.318;2023-07-22T14:38:55;4.43;;;2.38;;
43124;SDS011;49182;50.788;7.318;2023-07-22T14:43:56;4.05;;;2.22;;
43124;SDS011;49182;50.788;7.318;2023-07-22T14:49:00;3.83;;;2.05;;
43124;SDS011;49182;50.788;7.318;2023-07-22T14:54:02;4.28;;;1.80;;
43124;SDS011;49182;50.788;7.318;2023-07-22T14:59:04;3.97;;;2.03;;
43124;SDS011;49182;50.788;7.318;2023-07-22T15:04:07;5.93;;;2.15;;
43124;SDS011;49182;50.788;7.318;2023-07-22T15:09:09;3.83;;;2.10;;
43124;SDS011;49182;50.788;7.318;2023-07-22T15:14:11;4.78;;;2.40;;
43124;SDS011;49182;50.788;7.318;2023-07-22T15:19:14;6.85;;;2.08;;
43124;SDS011;49182;50.788;7.318;2023-07-22T15:24:16;5.47;;;2.90;;
43124;SDS011;49182;50.788;7.318;2023-07-22T15:29:18;4.32;;;2.50;;
43124;SDS011;49182;50.788;7.318;2023-07-22T15:34:24;4.78;;;2.90;;
43124;SDS011;49182;50.788;7.318;2023-07-22T15:39:28;4.82;;;2.45;;
43124;SDS011;49182;50.788;7.318;2023-07-22T15:44:30;4.75;;;2.53;;
43124;SDS011;49182;50.788;7.318;2023-07-22T15:49:33;4.60;;;2.90;;
43124;SDS011;49182;50.788;7.318;2023-07-22T15:54:34;7.45;;;3.53;;
43124;SDS011;49182;50.788;7.318;2023-07-22T15:59:36;6.28;;;2.78;;
43124;SDS011;49182;50.788;7.318;2023-07-22T16:04:39;5.00;;;2.92;;
43124;SDS011;49182;50.788;7.318;2023-07-22T16:09:41;4.82;;;2.58;;
43124;SDS011;49182;50.788;7.318;2023-07-22T16:14:43;4.65;;;2.92;;
43124;SDS011;49182;50.788;7.318;2023-07-22T16:19:46;4.55;;;2.92;;
43124;SDS011;49182;50.788;7.318;2023-07-22T16:24:48;6.43;;;3.53;;
43124;SDS011;49182;50.788;7.318;2023-07-22T16:29:49;6.97;;;2.58;;
43124;SDS011;49182;50.788;7.318;2023-07-22T16:34:52;5.50;;;2.83;;
43124;SDS011;49182;50.788;7.318;2023-07-22T16:39:54;4.68;;;2.70;;
43124;SDS011;49182;50.788;7.318;2023-07-22T16:44:56;5.40;;;2.60;;
43124;SDS011;49182;50.788;7.318;2023-07-22T16:49:59;5.85;;;3.42;;
43124;SDS011;49182;50.788;7.318;2023-07-22T16:55:01;4.68;;;2.83;;
43124;SDS011;49182;50.788;7.318;2023-07-22T17:00:03;5.28;;;3.13;;
43124;SDS011;49182;50.788;7.318;2023-07-22T17:05:07;5.53;;;3.20;;
43124;SDS011;49182;50.788;7.318;2023-07-22T17:10:09;5.32;;;2.58;;
43124;SDS011;49182;50.788;7.318;2023-07-22T17:15:11;5.47;;;2.53;;
43124;SDS011;49182;50.788;7.318;2023-07-22T17:20:15;6.13;;;2.88;;
43124;SDS011;49182;50.788;7.318;2023-07-22T17:25:17;5.38;;;2.58;;
43124;SDS011;49182;50.788;7.318;2023-07-22T17:30:19;4.35;;;2.10;;
43124;SDS011;49182;50.788;7.318;2023-07-22T17:35:22;5.97;;;2.33;;
43124;SDS011;49182;50.788;7.318;2023-07-22T17:40:23;4.53;;;2.45;;
43124;SDS011;49182;50.788;7.318;2023-07-22T17:45:25;4.60;;;1.98;;
43124;SDS011;49182;50.788;7.318;2023-07-22T17:50:28;4.72;;;3.28;;
43124;SDS011;49182;50.788;7.318;2023-07-22T17:55:30;3.80;;;1.90;;
43124;SDS011;49182;50.788;7.318;2023-07-22T18:00:32;4.35;;;1.52;;
43124;SDS011;49182;50.788;7.318;2023-07-22T18:05:35;2.85;;;1.38;;
43124;SDS011;49182;50.788;7.318;2023-07-22T18:10:37;5.15;;;1.80;;
43124;SDS011;49182;50.788;7.318;2023-07-22T18:15:38;3.17;;;1.70;;
43124;SDS011;49182;50.788;7.318;2023-07-22T18:20:43;5.72;;;1.88;;
43124;SDS011;49182;50.788;7.318;2023-07-22T18:25:44;6.93;;;2.25;;
43124;SDS011;49182;50.788;7.318;2023-07-22T18:35:49;4.00;;;1.73;;
43124;SDS011;49182;50.788;7.318;2023-07-22T18:40:52;3.80;;;2.10;;
43124;SDS011;49182;50.788;7.318;2023-07-22T18:45:54;3.50;;;1.80;;
43124;SDS011;49182;50.788;7.318;2023-07-22T18:55:58;6.40;;;2.50;;
43124;SDS011;49182;50.788;7.318;2023-07-22T19:01:00;4.35;;;3.13;;
43124;SDS011;49182;50.788;7.318;2023-07-22T19:06:03;4.13;;;2.33;;
43124;SDS011;49182;50.788;7.318;2023-07-22T19:11:05;4.22;;;2.55;;
43124;SDS011;49182;50.788;7.318;2023-07-22T19:16:07;4.82;;;2.20;;
43124;SDS011;49182;50.788;7.318;2023-07-22T19:26:12;5.45;;;2.63;;
43124;SDS011;49182;50.788;7.318;2023-07-22T19:31:13;4.97;;;2.55;;
43124;SDS011;49182;50.788;7.318;2023-07-22T19:36:16;4.95;;;2.63;;
43124;SDS011;49182;50.788;7.318;2023-07-22T19:41:18;5.35;;;2.35;;
43124;SDS011;49182;50.788;7.318;2023-07-22T19:46:20;4.85;;;1.85;;
43124;SDS011;49182;50.788;7.318;2023-07-22T19:51:23;4.57;;;2.17;;
43124;SDS011;49182;50.788;7.318;2023-07-22T19:56:25;6.13;;;2.50;;
43124;SDS011;49182;50.788;7.318;2023-07-22T20:01:26;4.63;;;2.10;;
43124;SDS011;49182;50.788;7.318;2023-07-22T20:06:30;7.72;;;2.25;;
43124;SDS011;49182;50.788;7.318;2023-07-22T20:11:32;3.80;;;1.85;;
43124;SDS011;49182;50.788;7.318;2023-07-22T20:21:36;6.20;;;2.67;;
43124;SDS011;49182;50.788;7.318;2023-07-22T20:26:38;6.00;;;2.78;;
43124;SDS011;49182;50.788;7.318;2023-07-22T20:31:40;3.75;;;2.67;;
43124;SDS011;49182;50.788;7.318;2023-07-22T20:36:43;3.63;;;2.33;;
43124;SDS011;49182;50.788;7.318;2023-07-22T20:41:45;5.13;;;2.40;;
43124;SDS011;49182;50.788;7.318;2023-07-22T20:46:46;5.32;;;2.55;;
43124;SDS011;49182;50.788;7.318;2023-07-22T20:51:49;4.82;;;2.75;;
43124;SDS011;49182;50.788;7.318;2023-07-22T20:56:51;5.28;;;3.42;;
43124;SDS011;49182;50.788;7.318;2023-07-22T21:01:53;4.10;;;2.58;;
43124;SDS011;49182;50.788;7.318;2023-07-22T21:06:56;5.38;;;2.42;;
43124;SDS011;49182;50.788;7.318;2023-07-22T21:11:58;4.20;;;2.33;;
43124;SDS011;49182;50.788;7.318;2023-07-22T21:17:00;4.13;;;2.90;;
43124;SDS011;49182;50.788;7.318;2023-07-22T21:22:03;4.47;;;2.53;;
43124;SDS011;49182;50.788;7.318;2023-07-22T21:27:07;5.75;;;3.78;;
43124;SDS011;49182;50.788;7.318;2023-07-22T21:32:09;5.82;;;3.45;;
43124;SDS011;49182;50.788;7.318;2023-07-22T21:37:12;3.88;;;2.30;;
43124;SDS011;49182;50.788;7.318;2023-07-22T21:42:13;5.93;;;4.03;;
43124;SDS011;49182;50.788;7.318;2023-07-22T21:47:15;7.85;;;3.47;;
43124;SDS011;49182;50.788;7.318;2023-07-22T21:52:18;4.40;;;2.83;;
43124;SDS011;49182;50.788;7.318;2023-07-22T21:57:20;5.85;;;2.95;;
43124;SDS011;49182;50.788;7.318;2023-07-22T22:02:22;5.53;;;2.83;;
43124;SDS011;49182;50.788;7.318;2023-07-22T22:07:25;6.07;;;3.05;;
43124;SDS011;49182;50.788;7.318;2023-07-22T22:12:27;4.68;;;2.58;;
43124;SDS011;49182;50.788;7.318;2023-07-22T22:17:29;4.53;;;2.95;;
43124;SDS011;49182;50.788;7.318;2023-07-22T22:22:32;5.22;;;3.60;;
43124;SDS011;49182;50.788;7.318;2023-07-22T22:27:33;7.20;;;2.92;;
43124;SDS011;49182;50.788;7.318;2023-07-22T22:32:35;4.38;;;2.72;;
43124;SDS011;49182;50.788;7.318;2023-07-22T22:37:38;10.10;;;3.08;;
43124;SDS011;49182;50.788;7.318;2023-07-22T22:42:40;4.72;;;2.78;;
43124;SDS011;49182;50.788;7.318;2023-07-22T22:47:42;5.03;;;2.55;;
43124;SDS011;49182;50.788;7.318;2023-07-22T22:52:45;6.70;;;3.28;;
43124;SDS011;49182;50.788;7.318;2023-07-22T22:57:46;6.57;;;3.15;;
43124;SDS011;49182;50.788;7.318;2023-07-22T23:02:51;5.03;;;3.03;;
43124;SDS011;49182;50.788;7.318;2023-07-22T23:07:54;6.15;;;3.08;;
43124;SDS011;49182;50.788;7.318;2023-07-22T23:12:56;4.85;;;2.88;;
43124;SDS011;49182;50.788;7.318;2023-07-22T23:17:58;5.85;;;2.70;;
43124;SDS011;49182;50.788;7.318;2023-07-22T23:23:01;7.10;;;2.65;;
43124;SDS011;49182;50.788;7.318;2023-07-22T23:28:03;4.88;;;2.58;;
43124;SDS011;49182;50.788;7.318;2023-07-22T23:33:04;4.47;;;2.35;;
43124;SDS011;49182;50.788;7.318;2023-07-22T23:38:08;4.32;;;2.40;;
43124;SDS011;49182;50.788;7.318;2023-07-22T23:43:09;7.07;;;2.83;;
43124;SDS011;49182;50.788;7.318;2023-07-22T23:48:11;4.50;;;3.08;;
43124;SDS011;49182;50.788;7.318;2023-07-22T23:53:14;5.05;;;4.10;;
43124;SDS011;49182;50.788;7.318;2023-07-22T23:58:16;10.05;;;3.25;;
